Time;durP1;ratioP1;P1;durP2;ratioP2;P2;SDS_P1;SDS_P2;PMS_P1;PMS_P2;Temp;Humidity;BMP_temperature;BMP_pressure;BME280_temperature;BME280_humidity;BME280_pressure;Samples;Min_cycle;Max_cycle;Signal;HPM_P1;HPM_P2
2021/10/20 00:01:58;;;;;;;0.70;0.70;;;;;;;16.50;100.00;-21129.66;4992109;28;20493;-73
2021/10/20 00:04:26;;;;;;;0.77;0.77;;;;;;;16.55;100.00;-21131.16;4977196;28;20447;-71
2021/10/20 00:06:53;;;;;;;0.70;0.60;;;;;;;16.54;100.00;-21130.75;4976045;28;20799;-73
2021/10/20 00:09:20;;;;;;;0.70;0.60;;;;;;;16.61;100.00;-21132.66;4976886;28;20462;-72
2021/10/20 00:11:47;;;;;;;0.70;0.70;;;;;;;16.59;100.00;-21132.13;4959855;28;20431;-73
2021/10/20 00:14:15;;;;;;;0.70;0.70;;;;;;;16.57;100.00;-21131.56;4975846;28;20478;-73
2021/10/20 00:16:42;;;;;;;0.70;0.60;;;;;;;16.45;100.00;-21128.28;4991334;28;20491;-73
2021/10/20 00:19:11;;;;;;;0.70;0.70;;;;;;;16.36;100.00;-21126.06;4976820;28;20432;-73
2021/10/20 00:21:38;;;;;;;0.70;0.60;;;;;;;16.43;100.00;-21127.88;4956419;29;20519;-73
2021/10/20 00:24:05;;;;;;;0.70;0.60;;;;;;;16.43;100.00;-21128.00;4951164;28;20463;-74
2021/10/20 00:26:32;;;;;;;0.70;0.60;;;;;;;16.41;100.00;-21127.44;4959373;28;20813;-73
2021/10/20 00:28:59;;;;;;;0.70;0.60;;;;;;;16.46;100.00;-21128.53;4976800;28;20451;-72
2021/10/20 00:31:28;;;;;;;0.97;0.97;;;;;;;16.36;100.00;-21125.94;4975633;28;20416;-73
2021/10/20 00:33:59;;;;;;;0.70;0.70;;;;;;;16.41;100.00;-21127.31;4976541;28;20415;-73
2021/10/20 00:36:33;;;;;;;0.70;0.60;;;;;;;16.37;100.00;-21126.34;4971510;28;20479;-73
2021/10/20 00:39:04;;;;;;;0.70;0.60;;;;;;;16.48;100.00;-21129.09;4956534;28;20534;-73
2021/10/20 00:41:38;;;;;;;0.70;0.60;;;;;;;16.47;100.00;-21128.81;4973953;28;20460;-73
2021/10/20 00:44:10;;;;;;;1.37;0.87;;;;;;;16.39;100.00;-21126.75;4976546;28;20416;-73
2021/10/20 00:46:44;;;;;;;0.70;0.70;;;;;;;16.25;100.00;-21122.91;4975343;28;20544;-73
2021/10/20 00:49:14;;;;;;;0.70;0.70;;;;;;;16.11;100.00;-21119.22;4976638;28;20507;-73
2021/10/20 00:51:46;;;;;;;0.97;0.87;;;;;;;16.15;100.00;-21120.31;4975065;28;20435;-72
2021/10/20 00:54:16;;;;;;;0.80;0.80;;;;;;;16.19;100.00;-21121.41;4975477;28;20963;-72
2021/10/20 00:56:48;;;;;;;0.70;0.60;;;;;;;15.82;100.00;-21111.50;4976068;28;20479;-72
2021/10/20 00:59:21;;;;;;;0.70;0.70;;;;;;;15.49;100.00;-21102.56;4975425;28;20455;-71
2021/10/20 01:01:52;;;;;;;0.70;0.60;;;;;;;15.09;100.00;-21091.72;4974753;28;20460;-73
2021/10/20 01:04:22;;;;;;;0.70;0.60;;;;;;;14.77;100.00;-21083.19;4974727;28;20470;-73
2021/10/20 01:07:01;;;;;;;0.70;0.70;;;;;;;14.58;100.00;-21077.94;4974616;28;20447;-72
2021/10/20 01:09:31;;;;;;;0.87;0.87;;;;;;;14.41;100.00;-21073.41;4971638;28;20457;-72
2021/10/20 01:12:02;;;;;;;0.70;0.60;;;;;;;14.21;100.00;-21068.19;5005810;28;20526;-73
2021/10/20 01:14:35;;;;;;;0.70;0.70;;;;;;;14.13;100.00;-21065.84;4975041;28;20448;-73
2021/10/20 01:17:16;;;;;;;0.70;0.60;;;;;;;14.01;100.00;-21062.81;4975987;28;20818;-73
2021/10/20 01:19:46;;;;;;;0.70;0.70;;;;;;;13.95;100.00;-21061.16;4976217;28;20413;-73
2021/10/20 01:22:21;;;;;;;0.83;0.83;;;;;;;13.93;100.00;-21060.47;4976117;28;20546;-73
2021/10/20 01:24:51;;;;;;;0.70;0.60;;;;;;;13.92;100.00;-21060.31;4974910;28;20468;-73
2021/10/20 01:27:22;;;;;;;1.37;1.27;;;;;;;13.88;100.00;-21059.09;4973924;28;20447;-73
2021/10/20 01:29:56;;;;;;;0.70;0.70;;;;;;;14.01;100.00;-21062.66;4975402;28;20415;-73
2021/10/20 01:32:29;;;;;;;0.70;0.60;;;;;;;13.91;100.00;-21060.03;4973748;28;20436;-73
2021/10/20 01:35:00;;;;;;;0.70;0.63;;;;;;;13.88;100.00;-21059.22;4966184;28;20483;-72
2021/10/20 01:37:40;;;;;;;0.70;0.60;;;;;;;13.90;100.00;-21059.78;4992982;28;20474;-72
2021/10/20 01:40:19;;;;;;;0.70;0.70;;;;;;;13.86;100.00;-21058.66;4959428;28;20456;-73
2021/10/20 01:42:49;;;;;;;0.70;0.60;;;;;;;13.76;100.00;-21056.06;4974530;28;20445;-73
2021/10/20 01:45:20;;;;;;;0.70;0.60;;;;;;;13.72;100.00;-21054.81;4973990;28;20863;-73
2021/10/20 01:47:53;;;;;;;0.70;0.70;;;;;;;13.70;100.00;-21054.25;4975420;28;20401;-73
2021/10/20 01:50:26;;;;;;;0.70;0.67;;;;;;;13.65;100.00;-21052.88;4974374;28;20809;-72
2021/10/20 01:52:58;;;;;;;0.70;0.70;;;;;;;13.65;100.00;-21052.88;4975487;28;20440;-72
2021/10/20 01:55:29;;;;;;;0.70;0.70;;;;;;;13.72;100.00;-21054.81;4975006;28;20947;-72
2021/10/20 01:58:02;;;;;;;0.70;0.70;;;;;;;13.83;100.00;-21057.84;4958725;28;20592;-73
2021/10/20 02:00:36;;;;;;;0.70;0.60;;;;;;;13.85;100.00;-21058.25;4973949;28;20455;-73
2021/10/20 02:03:08;;;;;;;0.70;0.70;;;;;;;13.94;100.00;-21060.88;4973194;28;20443;-72
2021/10/20 02:05:36;;;;;;;0.70;0.70;;;;;;;13.89;100.00;-21059.50;4973068;28;20855;-70
2021/10/20 02:08:04;;;;;;;0.70;0.60;;;;;;;13.87;100.00;-21058.94;4974636;28;20463;-71
2021/10/20 02:10:31;;;;;;;0.70;0.60;;;;;;;13.86;100.00;-21058.53;4963374;28;20500;-73
2021/10/20 02:12:59;;;;;;;0.70;0.60;;;;;;;13.74;100.00;-21055.50;4955687;28;20417;-72
2021/10/20 02:15:27;;;;;;;0.70;0.60;;;;;;;13.65;100.00;-21052.88;4970338;28;20489;-72
2021/10/20 02:17:55;;;;;;;0.70;0.60;;;;;;;13.56;100.00;-21050.53;4938400;29;20573;-73
2021/10/20 02:20:22;;;;;;;0.70;0.70;;;;;;;13.56;100.00;-21050.53;4971490;28;20514;-71
2021/10/20 02:22:51;;;;;;;0.70;0.70;;;;;;;13.61;100.00;-21051.91;4973391;28;20452;-72
2021/10/20 02:25:19;;;;;;;0.73;0.70;;;;;;;13.88;100.00;-21059.22;4973236;28;20807;-72
2021/10/20 02:27:47;;;;;;;0.70;0.63;;;;;;;14.00;100.00;-21062.53;4974877;28;20424;-73
2021/10/20 02:30:14;;;;;;;0.70;0.70;;;;;;;13.98;100.00;-21061.84;4974745;28;20455;-73
2021/10/20 02:32:42;;;;;;;0.70;0.70;;;;;;;14.11;100.00;-21065.28;4974451;28;20501;-73
2021/10/20 02:35:10;;;;;;;0.70;0.70;;;;;;;14.56;100.00;-21077.41;4974639;28;20516;-73
2021/10/20 02:37:38;;;;;;;0.70;0.70;;;;;;;15.00;100.00;-21089.25;4955103;28;20477;-73
2021/10/20 02:40:07;;;;;;;0.70;0.70;;;;;;;15.17;100.00;-21093.91;4959562;28;20483;-72
2021/10/20 02:42:35;;;;;;;0.70;0.70;;;;;;;15.33;100.00;-21098.31;4972940;28;20446;-73
2021/10/20 02:45:02;;;;;;;0.90;0.80;;;;;;;15.54;100.00;-21103.94;4973432;28;20464;-73
2021/10/20 02:47:29;;;;;;;0.70;0.60;;;;;;;15.55;100.00;-21104.22;4972095;28;20473;-73
2021/10/20 02:49:56;;;;;;;0.70;0.70;;;;;;;15.54;100.00;-21103.94;4974483;28;20824;-72
2021/10/20 02:52:23;;;;;;;0.80;0.70;;;;;;;15.58;100.00;-21104.91;4974342;28;20441;-72
2021/10/20 02:54:50;;;;;;;0.80;0.80;;;;;;;15.75;100.00;-21109.44;4973039;28;20554;-73
2021/10/20 02:57:18;;;;;;;1.03;0.93;;;;;;;15.71;100.00;-21108.50;4973444;28;20431;-73
2021/10/20 02:59:47;;;;;;;0.70;0.70;;;;;;;15.74;100.00;-21109.31;4972607;28;20432;-73
2021/10/20 03:02:14;;;;;;;0.70;0.60;;;;;;;15.76;100.00;-21109.88;4989186;28;20461;-73
2021/10/20 03:04:41;;;;;;;1.20;1.10;;;;;;;15.71;100.00;-21108.50;4973051;28;20860;-72
2021/10/20 03:07:08;;;;;;;0.70;0.70;;;;;;;15.88;100.00;-21113.16;4988002;28;20454;-73
2021/10/20 03:09:35;;;;;;;0.70;0.70;;;;;;;15.87;100.00;-21112.75;4970628;28;20926;-73
2021/10/20 03:12:02;;;;;;;0.80;0.80;;;;;;;15.72;100.00;-21108.75;4965168;28;20474;-72
2021/10/20 03:14:29;;;;;;;0.70;0.70;;;;;;;15.69;100.00;-21107.94;4972409;28;20478;-72
2021/10/20 03:16:58;;;;;;;0.70;0.70;;;;;;;15.78;100.00;-21110.28;4978021;28;20819;-72
2021/10/20 03:19:25;;;;;;;1.07;0.97;;;;;;;15.73;100.00;-21109.03;4992955;28;20471;-73
2021/10/20 03:21:52;;;;;;;0.70;0.70;;;;;;;15.79;100.00;-21110.69;4977826;28;20971;-72
2021/10/20 03:24:20;;;;;;;0.80;0.70;;;;;;;15.88;100.00;-21113.03;4976949;28;20525;-72
2021/10/20 03:26:47;;;;;;;0.70;0.60;;;;;;;15.78;100.00;-21110.41;4975421;28;20455;-73
2021/10/20 03:29:14;;;;;;;0.70;0.70;;;;;;;15.84;100.00;-21111.94;4976645;28;20796;-73
2021/10/20 03:31:41;;;;;;;0.70;0.60;;;;;;;15.86;100.00;-21112.63;4977560;28;20522;-72
2021/10/20 03:34:10;;;;;;;0.70;0.60;;;;;;;15.78;100.00;-21110.41;4977362;28;20443;-72
2021/10/20 03:36:37;;;;;;;0.70;0.60;;;;;;;15.82;100.00;-21111.38;4977990;28;20470;-73
2021/10/20 03:39:04;;;;;;;0.80;0.70;;;;;;;15.72;100.00;-21108.75;4977551;28;20482;-73
2021/10/20 03:41:31;;;;;;;0.70;0.60;;;;;;;15.68;100.00;-21107.66;4976081;28;21038;-73
2021/10/20 03:44:03;;;;;;;0.70;0.60;;;;;;;15.65;100.00;-21106.97;4992729;28;20415;-72
2021/10/20 03:46:30;;;;;;;0.70;0.60;;;;;;;15.73;100.00;-21109.03;4977611;28;20440;-72
2021/10/20 03:48:57;;;;;;;0.70;0.60;;;;;;;15.74;100.00;-21109.19;4977188;28;20421;-73
2021/10/20 03:51:26;;;;;;;0.70;0.60;;;;;;;15.80;100.00;-21110.84;4977757;28;20439;-73
2021/10/20 03:53:53;;;;;;;0.70;0.70;;;;;;;15.82;100.00;-21111.50;4976109;28;20502;-73
2021/10/20 03:56:20;;;;;;;0.70;0.70;;;;;;;15.83;100.00;-21111.66;4977132;28;20526;-73
2021/10/20 03:58:47;;;;;;;0.70;0.70;;;;;;;15.91;100.00;-21114.00;4975938;28;20495;-73
2021/10/20 04:01:14;;;;;;;0.80;0.70;;;;;;;15.97;100.00;-21115.38;4977298;28;20452;-73
2021/10/20 04:03:41;;;;;;;0.70;0.70;;;;;;;16.06;100.00;-21117.84;4976097;28;20810;-73
2021/10/20 04:06:08;;;;;;;0.80;0.73;;;;;;;16.01;100.00;-21116.47;4976153;28;20428;-73
2021/10/20 04:08:38;;;;;;;0.70;0.70;;;;;;;15.99;100.00;-21115.91;4975948;28;20842;-73
2021/10/20 04:11:04;;;;;;;0.70;0.70;;;;;;;15.93;100.00;-21114.53;4976810;28;20539;-73
2021/10/20 04:13:31;;;;;;;0.70;0.60;;;;;;;15.86;100.00;-21112.47;4975872;28;20439;-73
2021/10/20 04:15:58;;;;;;;0.70;0.60;;;;;;;15.95;100.00;-21114.94;4964719;28;20926;-73
2021/10/20 04:18:25;;;;;;;0.70;0.70;;;;;;;16.01;100.00;-21116.47;4956538;29;20590;-73
2021/10/20 04:20:53;;;;;;;1.00;0.90;;;;;;;15.94;100.00;-21114.66;4957960;28;20464;-73
2021/10/20 04:23:19;;;;;;;3.03;2.53;;;;;;;15.97;100.00;-21115.50;4957771;28;20453;-71
2021/10/20 04:25:48;;;;;;;0.70;0.60;;;;;;;15.91;100.00;-21114.00;4957232;28;20464;-73
2021/10/20 04:28:15;;;;;;;0.70;0.60;;;;;;;15.94;100.00;-21114.66;4956303;28;20479;-72
2021/10/20 04:30:43;;;;;;;0.70;0.60;;;;;;;16.01;100.00;-21116.47;4962996;28;20479;-73
2021/10/20 04:33:10;;;;;;;0.70;0.60;;;;;;;15.98;100.00;-21115.63;4975309;28;20442;-73
2021/10/20 04:35:37;;;;;;;0.70;0.60;;;;;;;16.01;100.00;-21116.47;4976733;28;20486;-72
2021/10/20 04:38:04;;;;;;;0.70;0.60;;;;;;;15.98;100.00;-21115.78;4976307;28;20917;-73
2021/10/20 04:40:31;;;;;;;0.70;0.70;;;;;;;15.98;100.00;-21115.63;4974859;28;20435;-73
2021/10/20 04:42:59;;;;;;;0.70;0.60;;;;;;;16.02;100.00;-21116.75;4976285;28;20448;-73
2021/10/20 04:45:26;;;;;;;1.00;0.73;;;;;;;15.97;100.00;-21115.50;4975071;28;20490;-73
2021/10/20 04:47:53;;;;;;;0.80;0.70;;;;;;;16.01;100.00;-21116.47;4976487;28;20540;-73
2021/10/20 04:50:24;;;;;;;0.70;0.70;;;;;;;16.13;100.00;-21119.75;4959009;28;20439;-73
2021/10/20 04:52:51;;;;;;;0.83;0.83;;;;;;;16.17;100.00;-21121.00;4975197;28;20979;-73
2021/10/20 04:55:18;;;;;;;0.70;0.60;;;;;;;16.23;100.00;-21122.50;4976272;28;20515;-73
2021/10/20 04:57:48;;;;;;;0.70;0.60;;;;;;;16.20;100.00;-21121.69;4976013;28;20542;-73
2021/10/20 05:00:18;;;;;;;0.70;0.67;;;;;;;16.11;100.00;-21119.34;4974169;28;21004;-73
2021/10/20 05:02:45;;;;;;;0.70;0.60;;;;;;;16.18;100.00;-21121.13;4976256;28;20412;-73
2021/10/20 05:05:13;;;;;;;0.80;0.70;;;;;;;16.22;100.00;-21122.22;4976052;28;20450;-73
2021/10/20 05:07:47;;;;;;;1.27;0.80;;;;;;;16.22;100.00;-21122.22;4976355;28;20482;-73
2021/10/20 05:10:14;;;;;;;0.70;0.60;;;;;;;16.23;100.00;-21122.50;4958719;28;20458;-73
2021/10/20 05:12:42;;;;;;;0.70;0.60;;;;;;;16.22;100.00;-21122.22;4975454;28;20434;-73
2021/10/20 05:15:10;;;;;;;0.70;0.70;;;;;;;16.30;100.00;-21124.44;4976037;28;20432;-73
2021/10/20 05:17:41;;;;;;;0.70;0.70;;;;;;;16.28;100.00;-21123.88;4975876;28;20981;-73
2021/10/20 05:20:10;;;;;;;0.70;0.60;;;;;;;16.33;100.00;-21125.25;4975779;28;20466;-73
2021/10/20 05:22:38;;;;;;;0.70;0.70;;;;;;;16.31;100.00;-21124.69;4974597;28;20535;-73
2021/10/20 05:25:07;;;;;;;0.70;0.70;;;;;;;16.30;100.00;-21124.44;4976056;28;20530;-73
2021/10/20 05:27:34;;;;;;;0.70;0.60;;;;;;;16.37;100.00;-21126.22;4974277;28;20440;-73
2021/10/20 05:30:02;;;;;;;0.80;0.80;;;;;;;16.30;100.00;-21124.44;4975762;28;20436;-73
2021/10/20 05:32:29;;;;;;;0.70;0.70;;;;;;;16.30;100.00;-21124.28;4975435;28;20430;-73
2021/10/20 05:34:58;;;;;;;0.70;0.60;;;;;;;16.33;100.00;-21125.13;4975620;28;20435;-73
2021/10/20 05:37:25;;;;;;;0.80;0.70;;;;;;;16.41;100.00;-21127.31;4974231;28;20470;-73
2021/10/20 05:39:53;;;;;;;0.70;0.60;;;;;;;16.45;100.00;-21128.28;4974084;28;20873;-73
2021/10/20 05:42:20;;;;;;;0.70;0.70;;;;;;;16.34;100.00;-21125.53;4973743;28;20439;-74
2021/10/20 05:44:47;;;;;;;0.70;0.60;;;;;;;16.31;100.00;-21124.69;4975689;28;20463;-73
2021/10/20 05:47:14;;;;;;;0.70;0.70;;;;;;;16.35;100.00;-21125.66;4975581;28;20489;-73
2021/10/20 05:49:41;;;;;;;0.70;0.70;;;;;;;16.35;100.00;-21125.66;4974845;28;20499;-74
2021/10/20 05:52:10;;;;;;;1.57;1.10;;;;;;;16.29;100.00;-21124.00;4973811;28;20860;-73
2021/10/20 05:54:37;;;;;;;1.73;1.63;;;;;;;16.33;100.00;-21125.25;4990566;28;20811;-73
2021/10/20 05:57:04;;;;;;;0.70;0.70;;;;;;;16.36;100.00;-21126.06;4974622;28;20486;-73
2021/10/20 05:59:31;;;;;;;0.70;0.70;;;;;;;16.36;100.00;-21125.94;4990086;28;20470;-73
2021/10/20 06:01:58;;;;;;;0.83;0.77;;;;;;;16.32;100.00;-21124.84;4989983;28;20453;-73
2021/10/20 06:04:25;;;;;;;0.70;0.70;;;;;;;16.24;100.00;-21122.78;4973397;28;21015;-73
2021/10/20 06:06:53;;;;;;;0.70;0.60;;;;;;;16.22;100.00;-21122.22;4974960;28;20535;-73
2021/10/20 06:09:21;;;;;;;0.80;0.80;;;;;;;16.35;100.00;-21125.81;4973872;28;20498;-73
2021/10/20 06:11:48;;;;;;;0.70;0.60;;;;;;;16.28;100.00;-21123.75;4954046;29;20483;-73
2021/10/20 06:14:15;;;;;;;0.80;0.80;;;;;;;16.24;100.00;-21122.78;4956054;28;20476;-74
2021/10/20 06:16:42;;;;;;;0.70;0.63;;;;;;;16.37;100.00;-21126.34;4955470;28;20507;-73
2021/10/20 06:19:09;;;;;;;1.57;1.33;;;;;;;16.34;100.00;-21125.53;4963846;28;20465;-73
2021/10/20 06:21:36;;;;;;;0.80;0.70;;;;;;;16.46;100.00;-21128.69;4973482;28;20466;-73
2021/10/20 06:24:04;;;;;;;0.70;0.70;;;;;;;16.34;100.00;-21125.53;4974818;28;20881;-73
2021/10/20 06:26:33;;;;;;;0.70;0.63;;;;;;;16.41;100.00;-21127.44;4973977;28;20498;-73
2021/10/20 06:29:00;;;;;;;0.70;0.60;;;;;;;16.43;100.00;-21127.88;4973775;28;20825;-73
2021/10/20 06:31:26;;;;;;;0.70;0.60;;;;;;;16.38;100.00;-21126.63;4974646;28;20436;-73
2021/10/20 06:33:54;;;;;;;0.70;0.60;;;;;;;16.40;100.00;-21127.16;4969336;28;20486;-73
2021/10/20 06:36:27;;;;;;;0.70;0.60;;;;;;;16.36;100.00;-21125.94;4955113;28;20413;-73
2021/10/20 06:38:54;;;;;;;0.70;0.70;;;;;;;16.28;100.00;-21123.88;4971568;28;20542;-73
2021/10/20 06:41:20;;;;;;;0.80;0.70;;;;;;;16.36;100.00;-21126.06;4957426;28;20431;-73
2021/10/20 06:43:50;;;;;;;0.70;0.70;;;;;;;16.33;100.00;-21125.13;4953951;29;20439;-73
2021/10/20 06:46:19;;;;;;;0.70;0.60;;;;;;;16.13;100.00;-21119.91;4955267;29;20936;-74
2021/10/20 06:48:47;;;;;;;0.90;0.90;;;;;;;16.21;100.00;-21121.97;4971983;28;20811;-73
2021/10/20 06:51:15;;;;;;;0.80;0.77;;;;;;;16.25;100.00;-21123.06;4972755;28;20767;-74
2021/10/20 06:53:42;;;;;;;0.70;0.60;;;;;;;16.28;100.00;-21123.75;4973367;28;20811;-74
2021/10/20 06:56:09;;;;;;;2.07;1.93;;;;;;;16.21;100.00;-21121.97;4973995;28;20435;-73
2021/10/20 06:58:37;;;;;;;0.70;0.60;;;;;;;16.14;100.00;-21120.03;4972385;28;20585;-73
2021/10/20 07:01:06;;;;;;;0.70;0.60;;;;;;;16.19;100.00;-21121.41;4973133;28;20518;-74
2021/10/20 07:03:33;;;;;;;0.70;0.70;;;;;;;16.34;100.00;-21125.38;4972939;28;20502;-73
2021/10/20 07:06:06;;;;;;;0.70;0.60;;;;;;;16.43;100.00;-21128.00;4975303;28;20435;-73
2021/10/20 07:08:33;;;;;;;0.70;0.67;;;;;;;16.48;100.00;-21129.09;4974751;28;20662;-73
2021/10/20 07:11:00;;;;;;;0.70;0.60;;;;;;;16.45;100.00;-21128.28;4972977;28;20876;-73
2021/10/20 07:13:27;;;;;;;0.70;0.60;;;;;;;16.42;100.00;-21127.72;4972974;28;20926;-73
2021/10/20 07:15:58;;;;;;;0.70;0.70;;;;;;;16.43;100.00;-21128.00;4969458;28;20511;-73
2021/10/20 07:18:31;;;;;;;0.70;0.60;;;;;;;16.36;100.00;-21126.06;4964340;28;20478;-73
2021/10/20 07:20:58;;;;;;;0.70;0.67;;;;;;;16.52;100.00;-21130.34;4974088;28;20950;-73
2021/10/20 07:23:25;;;;;;;0.70;0.60;;;;;;;16.48;100.00;-21129.09;4988971;28;20545;-73
2021/10/20 07:25:53;;;;;;;0.80;0.70;;;;;;;16.50;100.00;-21129.66;4973187;28;20836;-73
2021/10/20 07:28:20;;;;;;;0.70;0.67;;;;;;;16.56;100.00;-21131.44;4973392;28;20420;-73
2021/10/20 07:30:46;;;;;;;1.20;0.87;;;;;;;16.58;100.00;-21131.97;4976965;28;20439;-73
2021/10/20 07:33:13;;;;;;;0.73;0.70;;;;;;;16.67;100.00;-21134.44;4954745;28;20507;-73
2021/10/20 07:35:47;;;;;;;0.70;0.70;;;;;;;16.72;100.00;-21135.69;4954471;28;20448;-73
2021/10/20 07:38:15;;;;;;;0.70;0.60;;;;;;;16.72;100.00;-21135.69;4954567;28;20982;-73
2021/10/20 07:40:42;;;;;;;0.90;0.90;;;;;;;16.73;100.00;-21135.97;4965660;28;20525;-73
2021/10/20 07:43:09;;;;;;;0.70;0.70;;;;;;;16.96;100.00;-21142.13;4972321;28;20426;-73
2021/10/20 07:45:36;;;;;;;0.70;0.60;;;;;;;16.93;100.00;-21141.31;4970849;28;20525;-73
2021/10/20 07:48:04;;;;;;;0.70;0.60;;;;;;;16.99;100.00;-21142.81;4960050;28;20455;-74
2021/10/20 07:50:32;;;;;;;0.70;0.70;;;;;;;17.03;100.00;-21143.91;5004936;28;20453;-75
2021/10/20 07:53:01;;;;;;;0.70;0.70;;;;;;;17.18;100.00;-21148.03;4961335;28;20786;-75
2021/10/20 07:55:29;;;;;;;1.67;1.57;;;;;;;17.16;100.00;-21147.50;4966775;28;20831;-73
2021/10/20 07:57:56;;;;;;;0.70;0.70;;;;;;;17.10;100.00;-21145.97;4972481;28;20787;-73
2021/10/20 08:00:24;;;;;;;0.80;0.70;;;;;;;17.31;100.00;-21151.47;4965060;28;20510;-73
2021/10/20 08:02:52;;;;;;;0.70;0.60;;;;;;;17.36;100.00;-21152.97;4975660;28;20450;-73
2021/10/20 08:05:21;;;;;;;0.70;0.60;;;;;;;17.31;100.00;-21151.47;4956342;28;20476;-73
2021/10/20 08:07:48;;;;;;;0.80;0.73;;;;;;;17.42;100.00;-21154.34;4976487;28;20516;-73
2021/10/20 08:10:19;;;;;;;0.70;0.60;;;;;;;17.41;100.00;-21154.06;4974912;28;20461;-73
2021/10/20 08:12:46;;;;;;;0.70;0.60;;;;;;;17.38;100.00;-21153.38;4975986;28;20440;-72
2021/10/20 08:15:16;;;;;;;1.40;1.30;;;;;;;17.45;100.00;-21155.31;4976381;28;20535;-73
2021/10/20 08:17:43;;;;;;;0.70;0.67;;;;;;;17.35;100.00;-21152.56;4975930;28;20470;-73
2021/10/20 08:20:14;;;;;;;0.70;0.70;;;;;;;17.26;100.00;-21150.22;4975944;28;20455;-73
2021/10/20 08:22:41;;;;;;;0.70;0.60;;;;;;;17.21;100.00;-21148.84;4976692;28;20449;-74
2021/10/20 08:25:11;;;;;;;0.70;0.70;;;;;;;17.35;100.00;-21152.56;4976739;28;20513;-75
2021/10/20 08:27:40;;;;;;;0.70;0.70;;;;;;;17.32;100.00;-21151.88;4976248;28;20783;-73
2021/10/20 08:30:18;;;;;;;0.70;0.60;;;;;;;17.25;100.00;-21149.97;4975433;28;20825;-74
2021/10/20 08:32:48;;;;;;;0.70;0.60;;;;;;;17.18;100.00;-21148.03;4976729;28;20448;-74
2021/10/20 08:35:16;;;;;;;0.80;0.70;;;;;;;17.05;100.00;-21144.59;4975818;28;20994;-73
2021/10/20 08:37:43;;;;;;;0.70;0.60;;;;;;;17.10;100.00;-21145.84;4976138;28;20463;-74
2021/10/20 08:40:12;;;;;;;0.70;0.67;;;;;;;17.21;100.00;-21148.72;4976400;28;20459;-74
2021/10/20 08:42:40;;;;;;;0.70;0.70;;;;;;;17.28;100.00;-21150.66;4976345;28;20445;-75
2021/10/20 08:45:08;;;;;;;0.70;0.70;;;;;;;17.38;100.00;-21153.38;4991904;28;20424;-76
2021/10/20 08:47:37;;;;;;;0.80;0.80;;;;;;;17.35;100.00;-21152.69;4976266;28;20462;-75
2021/10/20 08:50:06;;;;;;;0.70;0.60;;;;;;;17.50;100.00;-21156.69;4976635;28;20442;-71
2021/10/20 08:52:34;;;;;;;0.70;0.60;;;;;;;17.57;100.00;-21158.47;4977224;28;20553;-76
2021/10/20 08:55:02;;;;;;;0.70;0.70;;;;;;;17.56;100.00;-21158.19;4975233;28;20544;-74
2021/10/20 08:57:30;;;;;;;0.70;0.60;;;;;;;17.53;100.00;-21157.50;4976049;28;20973;-75
2021/10/20 09:00:04;;;;;;;0.70;0.60;;;;;;;17.35;100.00;-21152.69;4975942;28;20509;-75
2021/10/20 09:02:38;;;;;;;0.70;0.70;;;;;;;17.32;100.00;-21151.88;4974858;28;20840;-73
2021/10/20 09:05:12;;;;;;;0.80;0.80;;;;;;;17.43;100.00;-21154.63;4974267;28;20439;-74
2021/10/20 09:07:41;;;;;;;0.70;0.60;;;;;;;17.45;100.00;-21155.16;4974032;28;20471;-74
2021/10/20 09:10:09;;;;;;;0.97;0.93;;;;;;;17.47;100.00;-21155.84;4970774;28;20428;-75
2021/10/20 09:12:40;;;;;;;1.00;1.00;;;;;;;17.44;100.00;-21154.91;4972875;28;20430;-73
2021/10/20 09:15:11;;;;;;;1.10;1.10;;;;;;;17.54;100.00;-21157.63;4976196;28;20431;-73
2021/10/20 09:17:44;;;;;;;0.70;0.60;;;;;;;17.74;100.00;-21163.13;4991012;28;20416;-73
2021/10/20 09:20:23;;;;;;;0.70;0.60;;;;;;;17.77;100.00;-21163.94;4975658;28;20526;-74
2021/10/20 09:22:58;;;;;;;0.70;0.60;;;;;;;17.79;100.00;-21164.50;4975049;28;20451;-73
2021/10/20 09:25:32;;;;;;;0.70;0.60;;;;;;;17.93;100.00;-21168.19;4972849;28;20424;-75
2021/10/20 09:28:04;;;;;;;0.80;0.80;;;;;;;17.90;100.00;-21167.25;4975129;28;20448;-73
2021/10/20 09:30:34;;;;;;;1.17;1.07;;;;;;;17.91;100.00;-21167.50;4974081;28;21041;-73
2021/10/20 09:33:02;;;;;;;0.70;0.70;;;;;;;18.07;100.00;-21171.88;4974810;28;20483;-74
2021/10/20 09:35:30;;;;;;;0.80;0.70;;;;;;;18.13;100.00;-21173.53;4975269;28;20412;-76
2021/10/20 09:37:59;;;;;;;0.70;0.70;;;;;;;17.86;100.00;-21166.41;4990265;28;20450;-73
2021/10/20 09:40:33;;;;;;;0.70;0.60;;;;;;;17.79;100.00;-21164.50;4972748;28;20463;-72
2021/10/20 09:43:02;;;;;;;0.70;0.70;;;;;;;17.63;100.00;-21160.09;4986172;28;20950;-74
2021/10/20 09:45:35;;;;;;;0.80;0.70;;;;;;;17.81;100.00;-21164.91;4989979;28;20428;-75
2021/10/20 09:48:13;;;;;;;0.70;0.60;;;;;;;17.85;100.00;-21166.13;4968301;28;20443;-74
2021/10/20 09:50:54;;;;;;;0.80;0.77;;;;;;;17.97;100.00;-21169.16;4989500;28;20526;-76
2021/10/20 09:53:21;;;;;;;0.70;0.60;;;;;;;18.00;100.00;-21169.97;4972905;28;20454;-74
2021/10/20 09:55:49;;;;;;;0.70;0.60;;;;;;;18.12;100.00;-21173.25;4967920;28;20822;-73
2021/10/20 09:58:17;;;;;;;0.77;0.70;;;;;;;18.35;100.00;-21179.44;4974269;28;20420;-75
2021/10/20 10:00:45;;;;;;;0.70;0.70;;;;;;;18.22;100.00;-21176.00;4973730;28;20999;-71
2021/10/20 10:03:12;;;;;;;0.70;0.70;;;;;;;18.14;100.00;-21173.81;4974518;28;20432;-74
2021/10/20 10:05:40;;;;;;;0.70;0.70;;;;;;;18.01;100.00;-21170.38;4989278;28;20418;-75
2021/10/20 10:08:07;;;;;;;0.70;0.60;;;;;;;17.98;100.00;-21169.44;4975045;28;20468;-74
2021/10/20 10:10:36;;;;;;;0.70;0.70;;;;;;;17.94;100.00;-21168.34;4973079;28;20583;-73
2021/10/20 10:13:09;;;;;;;1.27;1.17;;;;;;;17.82;100.00;-21165.19;4967435;28;20484;-73
2021/10/20 10:15:39;;;;;;;0.70;0.60;;;;;;;17.69;100.00;-21161.75;4971663;28;20431;-75
2021/10/20 10:18:09;;;;;;;1.27;1.20;;;;;;;17.74;100.00;-21162.97;4974357;28;20422;-74
2021/10/20 10:20:41;;;;;;;0.70;0.60;;;;;;;17.68;100.00;-21161.47;4973873;28;20486;-75
2021/10/20 10:23:18;;;;;;;0.70;0.70;;;;;;;17.63;100.00;-21160.09;4974070;28;20793;-74
2021/10/20 10:25:55;;;;;;;0.70;0.70;;;;;;;17.59;100.00;-21159.00;4996320;28;20525;-73
2021/10/20 10:28:27;;;;;;;0.83;0.80;;;;;;;17.61;100.00;-21159.56;4986757;28;20416;-73
2021/10/20 10:30:57;;;;;;;0.87;0.87;;;;;;;17.61;100.00;-21159.56;4970473;28;20428;-73
2021/10/20 10:33:27;;;;;;;0.70;0.60;;;;;;;17.53;100.00;-21157.38;4973856;28;20439;-73
2021/10/20 10:36:09;;;;;;;0.70;0.70;;;;;;;17.42;100.00;-21154.47;4969485;28;20831;-73
2021/10/20 10:38:39;;;;;;;0.70;0.60;;;;;;;17.27;100.00;-21150.38;4983874;28;20450;-73
2021/10/20 10:41:23;;;;;;;0.70;0.70;;;;;;;17.49;100.00;-21156.41;4955974;28;20482;-74
2021/10/20 10:44:11;;;;;;;0.70;0.60;;;;;;;17.49;100.00;-21156.25;4971570;28;20923;-73
2021/10/20 10:46:40;;;;;;;0.70;0.70;;;;;;;17.58;100.00;-21158.72;4973539;28;20451;-74
2021/10/20 10:49:24;;;;;;;0.70;0.70;;;;;;;17.64;100.00;-21160.38;4974398;28;20822;-73
2021/10/20 10:52:20;;;;;;;0.70;0.60;;;;;;;17.87;100.00;-21166.56;4973177;28;20440;-74
2021/10/20 10:54:56;;;;;;;0.70;0.67;;;;;;;17.96;100.00;-21168.88;4988655;28;20483;-74
2021/10/20 10:57:36;;;;;;;0.70;0.60;;;;;;;17.97;100.00;-21169.28;4972881;28;20808;-73
2021/10/20 11:00:07;;;;;;;0.70;0.60;;;;;;;18.06;100.00;-21171.63;4974359;28;20869;-73
2021/10/20 11:02:48;;;;;;;0.70;0.70;;;;;;;17.97;100.00;-21169.16;4988983;28;20556;-73
2021/10/20 11:05:18;;;;;;;0.70;0.60;;;;;;;17.80;100.00;-21164.63;4973272;28;20593;-72
2021/10/20 11:07:54;;;;;;;0.70;0.60;;;;;;;17.88;100.00;-21166.69;4970825;28;20590;-73
2021/10/20 11:10:22;;;;;;;0.70;0.70;;;;;;;17.86;100.00;-21166.41;4972710;28;20466;-73
2021/10/20 11:12:51;;;;;;;0.80;0.80;;;;;;;17.60;100.00;-21159.41;4973510;28;20840;-73
2021/10/20 11:15:19;;;;;;;0.80;0.70;;;;;;;17.53;100.00;-21157.38;4973039;28;20428;-72
2021/10/20 11:17:46;;;;;;;0.80;0.80;;;;;;;17.46;100.00;-21155.44;4974096;28;20485;-72
2021/10/20 11:20:17;;;;;;;0.70;0.67;;;;;;;17.24;100.00;-21149.69;4973616;28;20569;-72
2021/10/20 11:22:46;;;;;;;0.70;0.63;;;;;;;17.13;100.00;-21146.81;4989024;28;20487;-72
2021/10/20 11:25:14;;;;;;;0.70;0.60;;;;;;;17.03;100.00;-21143.91;4973496;28;20943;-71
2021/10/20 11:27:46;;;;;;;0.70;0.60;;;;;;;16.87;100.00;-21139.66;4972998;28;20508;-72